sensor_id;sensor_type;location;lat;lon;timestamp;P1;durP1;ratioP1;P2;durP2;ratioP2
38683;SDS011;24910;53.248;-6.134;2023-02-02T00:00:28;13.18;;;7.60;;
38683;SDS011;24910;53.248;-6.134;2023-02-02T00:02:57;12.65;;;6.75;;
38683;SDS011;24910;53.248;-6.134;2023-02-02T00:05:26;15.30;;;8.70;;
38683;SDS011;24910;53.248;-6.134;2023-02-02T00:07:56;18.30;;;11.25;;
38683;SDS011;24910;53.248;-6.134;2023-02-02T00:10:25;12.40;;;6.33;;
38683;SDS011;24910;53.248;-6.134;2023-02-02T00:12:54;18.88;;;9.50;;
38683;SDS011;24910;53.248;-6.134;2023-02-02T00:15:24;37.10;;;20.52;;
38683;SDS011;24910;53.248;-6.134;2023-02-02T00:17:53;25.15;;;13.43;;
38683;SDS011;24910;53.248;-6.134;2023-02-02T00:20:22;23.88;;;11.52;;
38683;SDS011;24910;53.248;-6.134;2023-02-02T00:22:51;20.02;;;11.10;;
38683;SDS011;24910;53.248;-6.134;2023-02-02T00:25:22;24.45;;;11.68;;
38683;SDS011;24910;53.248;-6.134;2023-02-02T00:27:51;41.58;;;19.88;;
38683;SDS011;24910;53.248;-6.134;2023-02-02T00:30:21;45.42;;;18.65;;
38683;SDS011;24910;53.248;-6.134;2023-02-02T00:32:50;42.78;;;17.30;;
38683;SDS011;24910;53.248;-6.134;2023-02-02T00:35:19;28.02;;;11.35;;
38683;SDS011;24910;53.248;-6.134;2023-02-02T00:37:49;54.45;;;19.92;;
38683;SDS011;24910;53.248;-6.134;2023-02-02T00:40:18;64.25;;;24.40;;
38683;SDS011;24910;53.248;-6.134;2023-02-02T00:42:49;40.90;;;17.75;;
38683;SDS011;24910;53.248;-6.134;2023-02-02T00:45:18;96.87;;;34.37;;
38683;SDS011;24910;53.248;-6.134;2023-02-02T00:47:47;81.75;;;28.10;;
38683;SDS011;24910;53.248;-6.134;2023-02-02T00:50:17;68.82;;;26.33;;
38683;SDS011;24910;53.248;-6.134;2023-02-02T00:52:47;67.53;;;29.67;;
38683;SDS011;24910;53.248;-6.134;2023-02-02T00:55:16;59.05;;;28.58;;
38683;SDS011;24910;53.248;-6.134;2023-02-02T00:57:46;26.48;;;12.77;;
38683;SDS011;24910;53.248;-6.134;2023-02-02T01:00:18;24.98;;;12.55;;
38683;SDS011;24910;53.248;-6.134;2023-02-02T01:02:49;14.05;;;7.50;;
38683;SDS011;24910;53.248;-6.134;2023-02-02T01:05:19;9.18;;;4.20;;
38683;SDS011;24910;53.248;-6.134;2023-02-02T01:07:49;6.15;;;3.92;;
38683;SDS011;24910;53.248;-6.134;2023-02-02T01:10:18;4.03;;;2.25;;
38683;SDS011;24910;53.248;-6.134;2023-02-02T01:12:47;8.13;;;2.67;;
38683;SDS011;24910;53.248;-6.134;2023-02-02T01:15:18;4.50;;;2.42;;
38683;SDS011;24910;53.248;-6.134;2023-02-02T01:17:48;5.68;;;2.15;;
38683;SDS011;24910;53.248;-6.134;2023-02-02T01:20:18;4.38;;;2.35;;
38683;SDS011;24910;53.248;-6.134;2023-02-02T01:22:48;5.10;;;2.57;;
38683;SDS011;24910;53.248;-6.134;2023-02-02T01:25:17;6.25;;;2.33;;
38683;SDS011;24910;53.248;-6.134;2023-02-02T01:27:47;3.55;;;1.95;;
38683;SDS011;24910;53.248;-6.134;2023-02-02T01:30:17;6.28;;;1.92;;
38683;SDS011;24910;53.248;-6.134;2023-02-02T01:32:47;5.25;;;1.80;;
38683;SDS011;24910;53.248;-6.134;2023-02-02T01:35:16;2.88;;;1.90;;
38683;SDS011;24910;53.248;-6.134;2023-02-02T01:37:45;4.78;;;2.47;;
38683;SDS011;24910;53.248;-6.134;2023-02-02T01:40:14;7.38;;;2.10;;
38683;SDS011;24910;53.248;-6.134;2023-02-02T01:42:44;4.07;;;2.28;;
38683;SDS011;24910;53.248;-6.134;2023-02-02T01:45:16;4.97;;;2.45;;
38683;SDS011;24910;53.248;-6.134;2023-02-02T01:47:52;6.43;;;2.25;;
38683;SDS011;24910;53.248;-6.134;2023-02-02T01:50:24;3.70;;;2.38;;
38683;SDS011;24910;53.248;-6.134;2023-02-02T01:52:56;5.78;;;2.50;;
38683;SDS011;24910;53.248;-6.134;2023-02-02T01:55:28;4.72;;;2.20;;
38683;SDS011;24910;53.248;-6.134;2023-02-02T01:58:01;3.92;;;2.25;;
38683;SDS011;24910;53.248;-6.134;2023-02-02T02:00:36;2.33;;;2.13;;
38683;SDS011;24910;53.248;-6.134;2023-02-02T02:03:10;5.07;;;2.50;;
38683;SDS011;24910;53.248;-6.134;2023-02-02T02:05:42;7.60;;;2.40;;
38683;SDS011;24910;53.248;-6.134;2023-02-02T02:08:16;3.78;;;2.28;;
38683;SDS011;24910;53.248;-6.134;2023-02-02T02:10:47;3.65;;;2.17;;
38683;SDS011;24910;53.248;-6.134;2023-02-02T02:13:16;3.90;;;2.35;;
38683;SDS011;24910;53.248;-6.134;2023-02-02T02:15:51;5.55;;;2.20;;
38683;SDS011;24910;53.248;-6.134;2023-02-02T02:18:43;2.55;;;1.90;;
38683;SDS011;24910;53.248;-6.134;2023-02-02T02:21:23;3.55;;;2.22;;
38683;SDS011;24910;53.248;-6.134;2023-02-02T02:24:33;2.20;;;1.90;;
38683;SDS011;24910;53.248;-6.134;2023-02-02T02:33:52;4.75;;;2.45;;
38683;SDS011;24910;53.248;-6.134;2023-02-02T02:36:26;6.75;;;2.17;;
38683;SDS011;24910;53.248;-6.134;2023-02-02T02:39:04;4.18;;;2.22;;
38683;SDS011;24910;53.248;-6.134;2023-02-02T02:41:40;3.30;;;2.00;;
38683;SDS011;24910;53.248;-6.134;2023-02-02T02:44:15;3.75;;;2.10;;
38683;SDS011;24910;53.248;-6.134;2023-02-02T02:46:46;3.10;;;1.95;;
38683;SDS011;24910;53.248;-6.134;2023-02-02T02:49:19;3.58;;;1.70;;
38683;SDS011;24910;53.248;-6.134;2023-02-02T02:51:49;3.87;;;1.63;;
38683;SDS011;24910;53.248;-6.134;2023-02-02T02:54:25;3.83;;;1.50;;
38683;SDS011;24910;53.248;-6.134;2023-02-02T02:57:04;2.38;;;1.70;;
38683;SDS011;24910;53.248;-6.134;2023-02-02T02:59:46;4.32;;;1.50;;
38683;SDS011;24910;53.248;-6.134;2023-02-02T03:02:25;1.98;;;1.50;;
38683;SDS011;24910;53.248;-6.134;2023-02-02T03:05:09;2.03;;;1.38;;
38683;SDS011;24910;53.248;-6.134;2023-02-02T03:07:51;3.92;;;1.63;;
38683;SDS011;24910;53.248;-6.134;2023-02-02T03:10:25;3.03;;;1.20;;
38683;SDS011;24910;53.248;-6.134;2023-02-02T03:12:57;2.05;;;1.38;;
38683;SDS011;24910;53.248;-6.134;2023-02-02T03:15:26;2.47;;;1.40;;
38683;SDS011;24910;53.248;-6.134;2023-02-02T03:17:55;3.30;;;1.50;;
38683;SDS011;24910;53.248;-6.134;2023-02-02T03:20:26;4.80;;;1.38;;
38683;SDS011;24910;53.248;-6.134;2023-02-02T03:22:55;2.65;;;1.40;;
38683;SDS011;24910;53.248;-6.134;2023-02-02T03:25:24;1.83;;;1.05;;
38683;SDS011;24910;53.248;-6.134;2023-02-02T03:27:53;5.18;;;1.20;;
38683;SDS011;24910;53.248;-6.134;2023-02-02T03:30:22;3.90;;;0.90;;
38683;SDS011;24910;53.248;-6.134;2023-02-02T03:32:52;2.17;;;1.00;;
38683;SDS011;24910;53.248;-6.134;2023-02-02T03:35:21;1.08;;;0.80;;
38683;SDS011;24910;53.248;-6.134;2023-02-02T03:37:53;2.05;;;0.73;;
38683;SDS011;24910;53.248;-6.134;2023-02-02T03:40:22;1.20;;;0.80;;
38683;SDS011;24910;53.248;-6.134;2023-02-02T03:42:51;2.47;;;0.70;;
38683;SDS011;24910;53.248;-6.134;2023-02-02T03:45:21;3.25;;;0.93;;
38683;SDS011;24910;53.248;-6.134;2023-02-02T03:47:51;1.88;;;0.75;;
38683;SDS011;24910;53.248;-6.134;2023-02-02T03:50:20;1.58;;;0.75;;
38683;SDS011;24910;53.248;-6.134;2023-02-02T03:52:51;3.13;;;1.13;;
38683;SDS011;24910;53.248;-6.134;2023-02-02T03:55:22;2.75;;;0.93;;
38683;SDS011;24910;53.248;-6.134;2023-02-02T03:57:52;1.33;;;0.70;;
38683;SDS011;24910;53.248;-6.134;2023-02-02T04:00:21;3.60;;;0.70;;
38683;SDS011;24910;53.248;-6.134;2023-02-02T04:02:50;2.00;;;1.00;;
38683;SDS011;24910;53.248;-6.134;2023-02-02T04:05:20;3.97;;;1.00;;
38683;SDS011;24910;53.248;-6.134;2023-02-02T04:07:50;4.55;;;1.00;;
38683;SDS011;24910;53.248;-6.134;2023-02-02T04:10:20;1.70;;;0.73;;
38683;SDS011;24910;53.248;-6.134;2023-02-02T04:12:49;2.17;;;1.00;;
38683;SDS011;24910;53.248;-6.134;2023-02-02T04:15:18;2.63;;;0.98;;
38683;SDS011;24910;53.248;-6.134;2023-02-02T04:17:47;2.78;;;1.00;;
38683;SDS011;24910;53.248;-6.134;2023-02-02T04:20:16;2.17;;;1.38;;
38683;SDS011;24910;53.248;-6.134;2023-02-02T04:22:46;3.65;;;0.98;;
38683;SDS011;24910;53.248;-6.134;2023-02-02T04:25:15;2.85;;;1.00;;
38683;SDS011;24910;53.248;-6.134;2023-02-02T04:27:45;3.28;;;1.00;;
38683;SDS011;24910;53.248;-6.134;2023-02-02T04:30:14;4.78;;;1.00;;
38683;SDS011;24910;53.248;-6.134;2023-02-02T04:32:44;3.88;;;1.42;;
38683;SDS011;24910;53.248;-6.134;2023-02-02T04:35:13;2.45;;;1.27;;
38683;SDS011;24910;53.248;-6.134;2023-02-02T04:37:42;3.45;;;1.10;;
38683;SDS011;24910;53.248;-6.134;2023-02-02T04:40:12;6.25;;;1.42;;
38683;SDS011;24910;53.248;-6.134;2023-02-02T04:42:41;3.28;;;1.00;;
38683;SDS011;24910;53.248;-6.134;2023-02-02T04:45:12;5.90;;;1.00;;
38683;SDS011;24910;53.248;-6.134;2023-02-02T04:47:42;2.97;;;1.10;;
38683;SDS011;24910;53.248;-6.134;2023-02-02T04:50:11;2.30;;;0.90;;
38683;SDS011;24910;53.248;-6.134;2023-02-02T04:52:40;2.80;;;0.90;;
38683;SDS011;24910;53.248;-6.134;2023-02-02T04:55:09;1.80;;;1.00;;
38683;SDS011;24910;53.248;-6.134;2023-02-02T04:57:38;1.85;;;0.73;;
38683;SDS011;24910;53.248;-6.134;2023-02-02T05:00:07;2.72;;;0.80;;
38683;SDS011;24910;53.248;-6.134;2023-02-02T05:02:40;3.33;;;0.85;;
38683;SDS011;24910;53.248;-6.134;2023-02-02T05:07:39;4.40;;;0.70;;
38683;SDS011;24910;53.248;-6.134;2023-02-02T05:10:09;4.75;;;0.77;;
38683;SDS011;24910;53.248;-6.134;2023-02-02T05:12:39;0.50;;;0.43;;
38683;SDS011;24910;53.248;-6.134;2023-02-02T05:15:08;3.10;;;0.60;;
38683;SDS011;24910;53.248;-6.134;2023-02-02T05:17:39;1.13;;;0.50;;
38683;SDS011;24910;53.248;-6.134;2023-02-02T05:20:09;3.45;;;1.05;;
38683;SDS011;24910;53.248;-6.134;2023-02-02T05:22:38;1.58;;;0.60;;
38683;SDS011;24910;53.248;-6.134;2023-02-02T05:25:08;3.55;;;0.65;;
38683;SDS011;24910;53.248;-6.134;2023-02-02T05:27:37;1.25;;;0.80;;
38683;SDS011;24910;53.248;-6.134;2023-02-02T05:30:07;1.55;;;0.55;;
38683;SDS011;24910;53.248;-6.134;2023-02-02T05:32:40;1.50;;;0.50;;
38683;SDS011;24910;53.248;-6.134;2023-02-02T05:35:09;3.13;;;0.50;;
38683;SDS011;24910;53.248;-6.134;2023-02-02T05:37:39;0.70;;;0.47;;
38683;SDS011;24910;53.248;-6.134;2023-02-02T05:40:10;0.95;;;0.50;;
38683;SDS011;24910;53.248;-6.134;2023-02-02T05:42:39;0.32;;;0.32;;
38683;SDS011;24910;53.248;-6.134;2023-02-02T05:45:09;1.42;;;0.50;;
38683;SDS011;24910;53.248;-6.134;2023-02-02T05:47:40;1.58;;;0.50;;
38683;SDS011;24910;53.248;-6.134;2023-02-02T05:50:09;2.03;;;0.45;;
38683;SDS011;24910;53.248;-6.134;2023-02-02T05:52:38;1.42;;;0.50;;
38683;SDS011;24910;53.248;-6.134;2023-02-02T05:55:08;0.70;;;0.65;;
38683;SDS011;24910;53.248;-6.134;2023-02-02T05:57:38;1.48;;;0.50;;
38683;SDS011;24910;53.248;-6.134;2023-02-02T06:00:07;2.13;;;0.63;;
38683;SDS011;24910;53.248;-6.134;2023-02-02T06:02:41;1.58;;;0.70;;
38683;SDS011;24910;53.248;-6.134;2023-02-02T06:05:11;1.50;;;0.60;;
38683;SDS011;24910;53.248;-6.134;2023-02-02T06:07:40;2.20;;;0.60;;
38683;SDS011;24910;53.248;-6.134;2023-02-02T06:10:09;1.35;;;0.57;;
38683;SDS011;24910;53.248;-6.134;2023-02-02T06:12:38;3.70;;;0.90;;
38683;SDS011;24910;53.248;-6.134;2023-02-02T06:15:07;0.82;;;0.57;;
38683;SDS011;24910;53.248;-6.134;2023-02-02T06:17:37;2.42;;;0.70;;
38683;SDS011;24910;53.248;-6.134;2023-02-02T06:20:08;0.98;;;0.60;;
38683;SDS011;24910;53.248;-6.134;2023-02-02T06:22:38;2.63;;;0.60;;
38683;SDS011;24910;53.248;-6.134;2023-02-02T06:25:09;2.15;;;0.65;;
38683;SDS011;24910;53.248;-6.134;2023-02-02T06:27:38;0.85;;;0.40;;
38683;SDS011;24910;53.248;-6.134;2023-02-02T06:30:07;1.38;;;0.50;;
38683;SDS011;24910;53.248;-6.134;2023-02-02T06:32:37;0.50;;;0.50;;
38683;SDS011;24910;53.248;-6.134;2023-02-02T06:35:08;1.05;;;0.40;;
38683;SDS011;24910;53.248;-6.134;2023-02-02T06:37:37;1.35;;;0.70;;
38683;SDS011;24910;53.248;-6.134;2023-02-02T06:40:08;0.93;;;0.63;;
38683;SDS011;24910;53.248;-6.134;2023-02-02T06:42:39;2.65;;;0.40;;
38683;SDS011;24910;53.248;-6.134;2023-02-02T06:45:09;2.08;;;0.63;;
38683;SDS011;24910;53.248;-6.134;2023-02-02T06:47:38;0.43;;;0.40;;
38683;SDS011;24910;53.248;-6.134;2023-02-02T06:50:10;1.15;;;0.30;;
38683;SDS011;24910;53.248;-6.134;2023-02-02T06:52:39;2.85;;;0.77;;
38683;SDS011;24910;53.248;-6.134;2023-02-02T06:55:14;0.98;;;0.50;;
38683;SDS011;24910;53.248;-6.134;2023-02-02T06:57:43;2.63;;;0.60;;
38683;SDS011;24910;53.248;-6.134;2023-02-02T07:00:13;2.00;;;0.47;;
38683;SDS011;24910;53.248;-6.134;2023-02-02T07:02:44;2.55;;;0.60;;
38683;SDS011;24910;53.248;-6.134;2023-02-02T07:05:16;1.73;;;0.60;;
38683;SDS011;24910;53.248;-6.134;2023-02-02T07:07:47;1.60;;;0.55;;
38683;SDS011;24910;53.248;-6.134;2023-02-02T07:10:17;4.30;;;0.60;;
38683;SDS011;24910;53.248;-6.134;2023-02-02T07:13:06;3.03;;;0.60;;
38683;SDS011;24910;53.248;-6.134;2023-02-02T07:15:37;1.45;;;0.60;;
38683;SDS011;24910;53.248;-6.134;2023-02-02T07:18:06;2.97;;;0.57;;
38683;SDS011;24910;53.248;-6.134;2023-02-02T07:20:38;2.13;;;0.57;;
38683;SDS011;24910;53.248;-6.134;2023-02-02T07:23:07;2.97;;;0.67;;
38683;SDS011;24910;53.248;-6.134;2023-02-02T07:25:36;1.23;;;0.47;;
38683;SDS011;24910;53.248;-6.134;2023-02-02T07:28:05;3.75;;;0.70;;
38683;SDS011;24910;53.248;-6.134;2023-02-02T07:30:36;2.72;;;0.70;;
38683;SDS011;24910;53.248;-6.134;2023-02-02T07:33:05;1.63;;;0.68;;
38683;SDS011;24910;53.248;-6.134;2023-02-02T07:35:35;3.10;;;0.50;;
38683;SDS011;24910;53.248;-6.134;2023-02-02T07:38:05;2.67;;;0.60;;
38683;SDS011;24910;53.248;-6.134;2023-02-02T07:40:34;2.03;;;0.50;;
38683;SDS011;24910;53.248;-6.134;2023-02-02T07:43:03;3.28;;;0.50;;
38683;SDS011;24910;53.248;-6.134;2023-02-02T07:45:32;3.03;;;0.70;;
38683;SDS011;24910;53.248;-6.134;2023-02-02T07:48:02;3.20;;;0.75;;
38683;SDS011;24910;53.248;-6.134;2023-02-02T07:50:31;3.55;;;0.95;;
38683;SDS011;24910;53.248;-6.134;2023-02-02T07:53:01;2.58;;;0.60;;
38683;SDS011;24910;53.248;-6.134;2023-02-02T07:55:31;4.28;;;0.73;;
38683;SDS011;24910;53.248;-6.134;2023-02-02T07:58:00;6.82;;;0.70;;
38683;SDS011;24910;53.248;-6.134;2023-02-02T08:00:30;1.77;;;0.50;;
38683;SDS011;24910;53.248;-6.134;2023-02-02T08:02:59;2.15;;;0.52;;
38683;SDS011;24910;53.248;-6.134;2023-02-02T08:05:28;1.88;;;0.95;;
38683;SDS011;24910;53.248;-6.134;2023-02-02T08:07:58;2.08;;;1.02;;
38683;SDS011;24910;53.248;-6.134;2023-02-02T08:10:27;1.02;;;0.43;;
38683;SDS011;24910;53.248;-6.134;2023-02-02T08:12:57;1.52;;;0.50;;
38683;SDS011;24910;53.248;-6.134;2023-02-02T08:15:28;2.40;;;0.47;;
38683;SDS011;24910;53.248;-6.134;2023-02-02T08:17:57;2.47;;;0.55;;
38683;SDS011;24910;53.248;-6.134;2023-02-02T08:20:26;0.88;;;0.40;;
38683;SDS011;24910;53.248;-6.134;2023-02-02T08:22:56;2.63;;;0.50;;
38683;SDS011;24910;53.248;-6.134;2023-02-02T08:25:25;3.08;;;0.70;;
38683;SDS011;24910;53.248;-6.134;2023-02-02T08:27:54;4.13;;;0.65;;
38683;SDS011;24910;53.248;-6.134;2023-02-02T08:30:26;3.67;;;0.40;;
38683;SDS011;24910;53.248;-6.134;2023-02-02T08:32:55;2.85;;;0.63;;
38683;SDS011;24910;53.248;-6.134;2023-02-02T08:35:24;3.80;;;0.73;;
38683;SDS011;24910;53.248;-6.134;2023-02-02T08:37:54;3.20;;;0.60;;
38683;SDS011;24910;53.248;-6.134;2023-02-02T08:40:23;3.97;;;0.70;;
38683;SDS011;24910;53.248;-6.134;2023-02-02T08:42:52;3.13;;;0.60;;
38683;SDS011;24910;53.248;-6.134;2023-02-02T08:45:22;3.97;;;1.05;;
38683;SDS011;24910;53.248;-6.134;2023-02-02T08:48:13;2.08;;;0.55;;
38683;SDS011;24910;53.248;-6.134;2023-02-02T08:50:43;2.92;;;0.60;;
38683;SDS011;24910;53.248;-6.134;2023-02-02T08:53:12;3.88;;;1.13;;
38683;SDS011;24910;53.248;-6.134;2023-02-02T08:55:41;3.22;;;0.90;;
38683;SDS011;24910;53.248;-6.134;2023-02-02T08:58:10;5.20;;;1.40;;
38683;SDS011;24910;53.248;-6.134;2023-02-02T09:00:39;3.63;;;0.90;;
38683;SDS011;24910;53.248;-6.134;2023-02-02T09:03:08;4.60;;;0.75;;
38683;SDS011;24910;53.248;-6.134;2023-02-02T09:05:39;5.07;;;0.93;;
38683;SDS011;24910;53.248;-6.134;2023-02-02T09:08:08;2.33;;;0.67;;
38683;SDS011;24910;53.248;-6.134;2023-02-02T09:10:37;5.05;;;0.82;;
38683;SDS011;24910;53.248;-6.134;2023-02-02T09:13:06;6.15;;;1.05;;
38683;SDS011;24910;53.248;-6.134;2023-02-02T09:15:35;3.72;;;0.70;;
38683;SDS011;24910;53.248;-6.134;2023-02-02T09:18:05;3.70;;;0.60;;
38683;SDS011;24910;53.248;-6.134;2023-02-02T09:20:34;1.30;;;0.50;;
38683;SDS011;24910;53.248;-6.134;2023-02-02T09:23:06;2.78;;;0.80;;
38683;SDS011;24910;53.248;-6.134;2023-02-02T09:25:36;2.67;;;0.98;;
38683;SDS011;24910;53.248;-6.134;2023-02-02T09:28:05;2.63;;;0.70;;
38683;SDS011;24910;53.248;-6.134;2023-02-02T09:30:34;2.95;;;0.60;;
38683;SDS011;24910;53.248;-6.134;2023-02-02T09:33:03;2.13;;;0.50;;
38683;SDS011;24910;53.248;-6.134;2023-02-02T09:35:32;2.80;;;0.75;;
38683;SDS011;24910;53.248;-6.134;2023-02-02T09:38:01;3.53;;;0.80;;
38683;SDS011;24910;53.248;-6.134;2023-02-02T09:40:33;2.63;;;0.65;;
38683;SDS011;24910;53.248;-6.134;2023-02-02T09:43:05;1.52;;;0.38;;
38683;SDS011;24910;53.248;-6.134;2023-02-02T09:45:44;2.88;;;0.52;;
38683;SDS011;24910;53.248;-6.134;2023-02-02T09:48:22;2.40;;;0.40;;
38683;SDS011;24910;53.248;-6.134;2023-02-02T09:50:56;1.92;;;0.60;;
38683;SDS011;24910;53.248;-6.134;2023-02-02T09:53:34;2.13;;;0.60;;
38683;SDS011;24910;53.248;-6.134;2023-02-02T09:56:24;2.45;;;0.70;;
38683;SDS011;24910;53.248;-6.134;2023-02-02T09:59:00;3.55;;;0.70;;
38683;SDS011;24910;53.248;-6.134;2023-02-02T10:01:46;4.25;;;0.82;;
38683;SDS011;24910;53.248;-6.134;2023-02-02T10:04:20;2.08;;;0.60;;
38683;SDS011;24910;53.248;-6.134;2023-02-02T10:06:55;3.38;;;0.70;;
38683;SDS011;24910;53.248;-6.134;2023-02-02T10:09:30;4.05;;;0.75;;
38683;SDS011;24910;53.248;-6.134;2023-02-02T10:12:11;2.22;;;0.60;;
38683;SDS011;24910;53.248;-6.134;2023-02-02T10:14:50;2.42;;;0.80;;
38683;SDS011;24910;53.248;-6.134;2023-02-02T10:17:34;3.75;;;0.90;;
38683;SDS011;24910;53.248;-6.134;2023-02-02T10:20:14;3.45;;;0.73;;
38683;SDS011;24910;53.248;-6.134;2023-02-02T10:22:50;4.38;;;0.70;;
38683;SDS011;24910;53.248;-6.134;2023-02-02T10:25:25;2.30;;;0.60;;
38683;SDS011;24910;53.248;-6.134;2023-02-02T10:27:59;1.27;;;0.60;;
38683;SDS011;24910;53.248;-6.134;2023-02-02T10:30:36;1.50;;;0.50;;
38683;SDS011;24910;53.248;-6.134;2023-02-02T10:33:14;2.78;;;0.40;;
38683;SDS011;24910;53.248;-6.134;2023-02-02T10:35:50;1.63;;;0.60;;
38683;SDS011;24910;53.248;-6.134;2023-02-02T10:38:26;2.40;;;0.52;;
38683;SDS011;24910;53.248;-6.134;2023-02-02T10:41:06;3.38;;;0.60;;
38683;SDS011;24910;53.248;-6.134;2023-02-02T10:43:52;0.90;;;0.50;;
38683;SDS011;24910;53.248;-6.134;2023-02-02T10:46:38;1.65;;;0.47;;
38683;SDS011;24910;53.248;-6.134;2023-02-02T10:49:13;2.47;;;0.70;;
38683;SDS011;24910;53.248;-6.134;2023-02-02T10:51:48;4.60;;;0.60;;
38683;SDS011;24910;53.248;-6.134;2023-02-02T10:54:28;2.72;;;0.50;;
38683;SDS011;24910;53.248;-6.134;2023-02-02T10:57:33;1.10;;;0.50;;
38683;SDS011;24910;53.248;-6.134;2023-02-02T11:00:17;2.28;;;0.50;;
38683;SDS011;24910;53.248;-6.134;2023-02-02T11:02:49;2.83;;;0.52;;
38683;SDS011;24910;53.248;-6.134;2023-02-02T11:05:20;2.53;;;1.00;;
38683;SDS011;24910;53.248;-6.134;2023-02-02T11:08:13;0.90;;;0.47;;
38683;SDS011;24910;53.248;-6.134;2023-02-02T11:10:44;1.48;;;0.50;;
38683;SDS011;24910;53.248;-6.134;2023-02-02T11:13:16;1.73;;;0.40;;
38683;SDS011;24910;53.248;-6.134;2023-02-02T11:19:22;2.33;;;0.40;;
38683;SDS011;24910;53.248;-6.134;2023-02-02T11:21:55;1.15;;;0.40;;
38683;SDS011;24910;53.248;-6.134;2023-02-02T11:24:25;0.57;;;0.40;;
38683;SDS011;24910;53.248;-6.134;2023-02-02T11:26:58;2.55;;;0.38;;
38683;SDS011;24910;53.248;-6.134;2023-02-02T11:29:31;2.72;;;0.50;;
38683;SDS011;24910;53.248;-6.134;2023-02-02T11:32:16;8.68;;;0.70;;
38683;SDS011;24910;53.248;-6.134;2023-02-02T11:34:49;1.17;;;0.38;;
38683;SDS011;24910;53.248;-6.134;2023-02-02T11:37:52;0.65;;;0.40;;
38683;SDS011;24910;53.248;-6.134;2023-02-02T11:40:30;6.18;;;0.68;;
38683;SDS011;24910;53.248;-6.134;2023-02-02T11:43:03;5.93;;;0.63;;
38683;SDS011;24910;53.248;-6.134;2023-02-02T11:45:42;1.10;;;0.40;;
38683;SDS011;24910;53.248;-6.134;2023-02-02T11:48:16;2.00;;;0.30;;
38683;SDS011;24910;53.248;-6.134;2023-02-02T11:50:50;0.95;;;0.40;;
38683;SDS011;24910;53.248;-6.134;2023-02-02T11:53:21;1.67;;;0.52;;
38683;SDS011;24910;53.248;-6.134;2023-02-02T11:55:53;2.08;;;0.50;;
38683;SDS011;24910;53.248;-6.134;2023-02-02T11:58:24;3.38;;;0.70;;
38683;SDS011;24910;53.248;-6.134;2023-02-02T12:00:57;2.15;;;0.60;;
38683;SDS011;24910;53.248;-6.134;2023-02-02T12:03:31;2.15;;;0.40;;
38683;SDS011;24910;53.248;-6.134;2023-02-02T12:06:17;6.65;;;0.80;;
38683;SDS011;24910;53.248;-6.134;2023-02-02T12:08:48;2.90;;;0.68;;
38683;SDS011;24910;53.248;-6.134;2023-02-02T12:11:25;1.55;;;0.88;;
38683;SDS011;24910;53.248;-6.134;2023-02-02T12:14:06;5.10;;;0.90;;
38683;SDS011;24910;53.248;-6.134;2023-02-02T12:16:47;1.02;;;0.60;;
38683;SDS011;24910;53.248;-6.134;2023-02-02T12:22:40;1.90;;;0.50;;
38683;SDS011;24910;53.248;-6.134;2023-02-02T12:25:45;5.22;;;0.75;;
38683;SDS011;24910;53.248;-6.134;2023-02-02T12:28:38;4.65;;;0.75;;
38683;SDS011;24910;53.248;-6.134;2023-02-02T12:31:18;5.53;;;0.80;;
38683;SDS011;24910;53.248;-6.134;2023-02-02T12:33:56;2.20;;;0.70;;
38683;SDS011;24910;53.248;-6.134;2023-02-02T12:36:41;3.25;;;0.50;;
38683;SDS011;24910;53.248;-6.134;2023-02-02T12:39:25;5.15;;;0.88;;
38683;SDS011;24910;53.248;-6.134;2023-02-02T12:45:15;3.67;;;0.82;;
38683;SDS011;24910;53.248;-6.134;2023-02-02T12:47:59;2.30;;;0.77;;
38683;SDS011;24910;53.248;-6.134;2023-02-02T12:50:38;4.53;;;0.65;;
38683;SDS011;24910;53.248;-6.134;2023-02-02T12:53:21;2.83;;;0.70;;
38683;SDS011;24910;53.248;-6.134;2023-02-02T12:56:08;2.78;;;0.90;;
38683;SDS011;24910;53.248;-6.134;2023-02-02T12:58:52;2.50;;;0.80;;
38683;SDS011;24910;53.248;-6.134;2023-02-02T13:01:33;4.85;;;0.60;;
38683;SDS011;24910;53.248;-6.134;2023-02-02T13:04:28;2.30;;;0.57;;
38683;SDS011;24910;53.248;-6.134;2023-02-02T13:10:10;1.30;;;0.40;;
38683;SDS011;24910;53.248;-6.134;2023-02-02T13:12:46;3.67;;;0.70;;
38683;SDS011;24910;53.248;-6.134;2023-02-02T13:15:21;2.60;;;0.80;;
38683;SDS011;24910;53.248;-6.134;2023-02-02T13:17:55;1.98;;;0.60;;
38683;SDS011;24910;53.248;-6.134;2023-02-02T13:23:01;5.38;;;0.82;;
38683;SDS011;24910;53.248;-6.134;2023-02-02T13:25:36;1.30;;;0.52;;
38683;SDS011;24910;53.248;-6.134;2023-02-02T13:28:15;1.27;;;0.60;;
38683;SDS011;24910;53.248;-6.134;2023-02-02T13:31:03;6.05;;;0.60;;
38683;SDS011;24910;53.248;-6.134;2023-02-02T13:33:39;3.65;;;0.50;;
38683;SDS011;24910;53.248;-6.134;2023-02-02T13:36:13;3.60;;;0.55;;
38683;SDS011;24910;53.248;-6.134;2023-02-02T13:38:52;1.58;;;0.50;;
38683;SDS011;24910;53.248;-6.134;2023-02-02T13:41:24;2.13;;;0.50;;
38683;SDS011;24910;53.248;-6.134;2023-02-02T13:43:56;2.05;;;0.70;;
38683;SDS011;24910;53.248;-6.134;2023-02-02T13:46:32;2.63;;;0.68;;
38683;SDS011;24910;53.248;-6.134;2023-02-02T13:49:07;6.60;;;0.73;;
38683;SDS011;24910;53.248;-6.134;2023-02-02T13:51:54;0.40;;;0.40;;
38683;SDS011;24910;53.248;-6.134;2023-02-02T14:00:55;3.85;;;0.85;;
38683;SDS011;24910;53.248;-6.134;2023-02-02T14:03:30;1.88;;;0.65;;
38683;SDS011;24910;53.248;-6.134;2023-02-02T14:06:05;3.55;;;0.50;;
38683;SDS011;24910;53.248;-6.134;2023-02-02T14:08:42;2.28;;;0.50;;
38683;SDS011;24910;53.248;-6.134;2023-02-02T14:11:22;1.45;;;0.40;;
38683;SDS011;24910;53.248;-6.134;2023-02-02T14:13:55;2.88;;;0.80;;
38683;SDS011;24910;53.248;-6.134;2023-02-02T14:16:47;3.95;;;0.70;;
38683;SDS011;24910;53.248;-6.134;2023-02-02T14:34:26;2.20;;;0.90;;
38683;SDS011;24910;53.248;-6.134;2023-02-02T14:37:01;1.73;;;0.70;;
38683;SDS011;24910;53.248;-6.134;2023-02-02T14:39:50;6.00;;;1.10;;
38683;SDS011;24910;53.248;-6.134;2023-02-02T14:42:28;2.88;;;0.60;;
38683;SDS011;24910;53.248;-6.134;2023-02-02T14:45:28;2.75;;;0.60;;
38683;SDS011;24910;53.248;-6.134;2023-02-02T14:47:59;2.47;;;0.70;;
38683;SDS011;24910;53.248;-6.134;2023-02-02T14:50:33;2.50;;;0.60;;
38683;SDS011;24910;53.248;-6.134;2023-02-02T14:53:15;2.55;;;0.50;;
38683;SDS011;24910;53.248;-6.134;2023-02-02T14:55:50;1.55;;;0.55;;
38683;SDS011;24910;53.248;-6.134;2023-02-02T14:58:30;0.73;;;0.40;;
38683;SDS011;24910;53.248;-6.134;2023-02-02T15:01:07;3.85;;;0.70;;
38683;SDS011;24910;53.248;-6.134;2023-02-02T15:03:48;2.15;;;0.55;;
38683;SDS011;24910;53.248;-6.134;2023-02-02T15:06:26;2.75;;;0.80;;
38683;SDS011;24910;53.248;-6.134;2023-02-02T15:12:18;2.67;;;0.80;;
38683;SDS011;24910;53.248;-6.134;2023-02-02T15:14:52;3.55;;;0.90;;
38683;SDS011;24910;53.248;-6.134;2023-02-02T15:17:32;2.35;;;0.93;;
38683;SDS011;24910;53.248;-6.134;2023-02-02T15:20:11;5.13;;;0.90;;
38683;SDS011;24910;53.248;-6.134;2023-02-02T15:22:49;3.60;;;1.13;;
38683;SDS011;24910;53.248;-6.134;2023-02-02T15:25:23;7.35;;;1.50;;
38683;SDS011;24910;53.248;-6.134;2023-02-02T15:27:59;7.05;;;1.20;;
38683;SDS011;24910;53.248;-6.134;2023-02-02T15:30:31;7.82;;;0.80;;
38683;SDS011;24910;53.248;-6.134;2023-02-02T15:33:08;6.65;;;1.48;;
38683;SDS011;24910;53.248;-6.134;2023-02-02T15:35:48;3.92;;;1.05;;
38683;SDS011;24910;53.248;-6.134;2023-02-02T15:38:21;6.20;;;0.98;;
38683;SDS011;24910;53.248;-6.134;2023-02-02T15:41:01;3.00;;;0.85;;
38683;SDS011;24910;53.248;-6.134;2023-02-02T15:43:33;5.30;;;1.08;;
38683;SDS011;24910;53.248;-6.134;2023-02-02T15:48:38;5.93;;;0.80;;
38683;SDS011;24910;53.248;-6.134;2023-02-02T15:51:13;3.65;;;0.98;;
38683;SDS011;24910;53.248;-6.134;2023-02-02T15:53:48;5.68;;;1.00;;
38683;SDS011;24910;53.248;-6.134;2023-02-02T15:56:24;9.15;;;1.40;;
38683;SDS011;24910;53.248;-6.134;2023-02-02T15:58:57;7.68;;;1.00;;
38683;SDS011;24910;53.248;-6.134;2023-02-02T16:01:28;3.70;;;1.15;;